Flight Track Log - Related Links

Times and Time Zones

All times are in EST time to prevent confusion due to time zone crossing. See the N163CA flight status page for this flight to view local times or setup timezone preferences in your user account.

Time Position Orientation Groundspeed Altitude Reporting Facility
EST Latitude Longitude Course Direction KTS MPH feet Rate Location/Type
Wed 05:12:16 PM 27.4167 -82.4833 32° Northeast 101 116 2,200  Level Tampa TRACON
Wed 05:13:10 PM 27.4333 -82.4667 42° Northeast 100 115 2,800 684 Climbing Tampa TRACON
Wed 05:14:10 PM 27.4500 -82.4500 42° Northeast 101 116 3,500 700 Climbing Tampa TRACON
Wed 05:15:10 PM 27.4833 -82.4333 24° Northeast 100 115 4,200 700 Climbing Tampa TRACON
Wed 05:16:00 PM 27.5836 -82.3977 32° Northeast  Level FlightAware Approximate
Wed 05:16:10 PM 27.5000 -82.4167 42° Northeast 103 119 4,900  Level Tampa TRACON
Wed 05:17:00 PM 27.6119 -82.3776 32° Northeast  Level FlightAware Approximate
Wed 05:17:10 PM 27.5167 -82.3833 61° Northeast 122 140 4,900  Level Tampa TRACON
Wed 05:18:10 PM 27.5500 -82.3667 24° Northeast 132 152 4,800  Descending Tampa TRACON
Wed 05:19:10 PM 27.5833 -82.3333 42° Northeast 140 161 4,900  Climbing Tampa TRACON
Wed 05:19:53 PM 27.6000 -82.3167 42° Northeast 139 160 4,800 -56 Descending Tampa TRACON
Wed 05:20:58 PM 27.6333 -82.2833 42° Northeast 139 160 4,800 50 Level Tampa TRACON
Wed 05:21:53 PM 27.6667 -82.2667 24° Northeast 135 155 4,900 52 Climbing Tampa TRACON
Wed 05:22:53 PM 27.7000 -82.2333 42° Northeast 139 160 4,900 -48 Level Tampa TRACON
Wed 05:23:59 PM 27.7333 -82.2000 42° Northeast 144 166 4,800  Descending Tampa TRACON
Wed 05:25:05 PM 27.7667 -82.1833 24° Northeast 143 165 4,900  Climbing Tampa TRACON
Wed 05:25:53 PM 27.8000 -82.1667 24° Northeast 144 166 4,800 -56 Descending Tampa TRACON
Wed 05:26:53 PM 27.8333 -82.1500 24° Northeast 140 161 4,800 50 Level Tampa TRACON
Wed 05:27:53 PM 27.8667 -82.1333 24° Northeast 146 168 4,900 48 Climbing Tampa TRACON
Wed 05:28:59 PM 27.9167 -82.1167 16° North 146 168 4,900 -48 Level Tampa TRACON
Wed 05:29:59 PM 27.9500 -82.1000 24° Northeast 148 170 4,800 -50 Descending Tampa TRACON
Wed 05:30:59 PM 27.9833 -82.0667 41° Northeast 147 169 4,800 50 Level Tampa TRACON
Wed 05:31:59 PM 28.0167 -82.0500 24° Northeast 147 169 4,900 48 Climbing Tampa TRACON
Wed 05:33:05 PM 28.0667 -82.0333 16° North 147 169 4,900  Level Tampa TRACON
Wed 05:35:23 PM 28.1500 -81.9833 28° Northeast 147 169 4,900  Level Orlando TRACON
Wed 05:36:23 PM 28.1833 -81.9667 24° Northeast 147 169 4,900  Level Orlando TRACON
Wed 05:37:24 PM 28.2167 -81.9333 41° Northeast 149 171 4,900  Level Orlando TRACON
Wed 05:38:24 PM 28.2667 -81.9167 16° North 153 176 4,900 -50 Level Orlando TRACON
Wed 05:39:24 PM 28.3000 -81.9000 24° Northeast 154 177 4,800 -50 Descending Orlando TRACON
Wed 05:40:24 PM 28.3167 -81.8667 60° Northeast 149 171 4,800 -200 Level Orlando TRACON
Wed 05:41:24 PM 28.3500 -81.8333 41° Northeast 157 181 4,400 -400 Descending Orlando TRACON
Wed 05:42:24 PM 28.3833 -81.8000 41° Northeast 158 182 4,000 -300 Descending Orlando TRACON
Wed 05:43:24 PM 28.4167 -81.7667 41° Northeast 150 173 3,800 -150 Descending Orlando TRACON
Wed 05:44:24 PM 28.4500 -81.7333 41° Northeast 144 166 3,700 -250 Descending Orlando TRACON
Wed 05:45:24 PM 28.4833 -81.7000 41° Northeast 150 173 3,300 -350 Descending Orlando TRACON
Wed 05:46:24 PM 28.5167 -81.6667 41° Northeast 144 166 3,000 -350 Descending Orlando TRACON
Wed 05:47:24 PM 28.5500 -81.6500 24° Northeast 146 168 2,600 -450 Descending Orlando TRACON
Wed 05:48:24 PM 28.5833 -81.6167 41° Northeast 149 171 2,100 -397 Descending Orlando TRACON
Wed 05:49:25 PM 28.6000 -81.5833 60° Northeast 147 169 1,800 -99 Descending Orlando TRACON
Wed 05:50:25 PM 28.6333 -81.5667 24° Northeast 139 160 1,900 50 Climbing Orlando TRACON
Wed 05:51:25 PM 28.6667 -81.5333 41° Northeast 138 159 1,900  Level Orlando TRACON
Wed 05:52:25 PM 28.7000 -81.5167 24° Northeast 141 162 1,900  Level Orlando TRACON
Wed 05:53:25 PM 28.7333 -81.4833 41° Northeast 141 162 1,900  Level Orlando TRACON
Wed 05:54:25 PM 28.7667 -81.4667 24° Northeast 143 165 1,900 -100 Level Orlando TRACON
Wed 05:55:25 PM 28.7833 -81.4167 69° East 149 171 1,700 -200 Descending Orlando TRACON
Wed 05:56:25 PM 28.7833 -81.3833 90° East 144 166 1,500 -250 Descending Orlando TRACON
Wed 05:57:25 PM 28.7833 -81.3333 90° East 144 166 1,200 -400 Descending Orlando TRACON
Wed 05:58:25 PM 28.7833 -81.2833 90° East 112 129 700 -500 Descending Orlando TRACON
Wed 06:00:00 PM 28.7667 -81.2333 49° Northeast  Level FlightAware Approximate
Wed 06:07:00 PM 28.7770 -81.2349 49° Northeast  Level Estimated

Login

Don't have an account? Register now (free) for customized features, flight alerts, and more!